createdAt,value
2024-01-16T00:01:59.805Z,27.35
2024-01-16T00:06:55.631Z,25.63
2024-01-16T00:09:22.865Z,21.27
2024-01-16T00:14:17.067Z,24.55
2024-01-16T00:16:47.884Z,24.15
2024-01-16T00:19:15.406Z,27.70
2024-01-16T00:21:43.728Z,23.20
2024-01-16T00:24:10.975Z,25.60
2024-01-16T00:26:38.276Z,20.00
2024-01-16T00:29:07.862Z,25.50
2024-01-16T00:31:35.373Z,21.17
2024-01-16T00:34:02.810Z,26.77
2024-01-16T00:36:30.193Z,22.60
2024-01-16T00:38:57.701Z,22.45
2024-01-16T00:41:25.361Z,20.90
2024-01-16T00:43:52.696Z,21.88
2024-01-16T00:46:20.009Z,26.33
2024-01-16T00:48:47.356Z,27.35
2024-01-16T00:51:14.501Z,25.10
2024-01-16T00:56:10.273Z,21.23
2024-01-16T00:58:37.629Z,24.70
2024-01-16T01:01:05.265Z,26.40
2024-01-16T01:03:33.600Z,21.20
2024-01-16T01:06:02.220Z,20.45
2024-01-16T01:08:29.734Z,24.90
2024-01-16T01:10:57.109Z,26.98
2024-01-16T01:13:26.451Z,28.17
2024-01-16T01:15:53.877Z,27.38
2024-01-16T01:18:21.754Z,25.00
2024-01-16T01:20:49.262Z,19.77
2024-01-16T01:23:19.220Z,25.65
2024-01-16T01:25:46.733Z,23.27
2024-01-16T01:28:13.944Z,28.63
2024-01-16T01:33:08.800Z,24.05
2024-01-16T01:35:36.188Z,21.92
2024-01-16T01:38:03.466Z,19.55
2024-01-16T01:40:33.732Z,24.50
2024-01-16T01:45:44.921Z,21.17
2024-01-16T01:50:40.063Z,25.95
2024-01-16T01:53:07.288Z,17.58
2024-01-16T01:55:34.799Z,19.70
2024-01-16T01:58:05.460Z,22.50
2024-01-16T02:00:33.191Z,25.55
2024-01-16T02:03:01.517Z,18.15
2024-01-16T02:05:30.130Z,16.88
2024-01-16T02:07:57.636Z,21.08
2024-01-16T02:10:25.784Z,20.63
2024-01-16T02:12:52.956Z,21.00
2024-01-16T02:15:20.210Z,17.73
2024-01-16T02:17:49.256Z,17.95
2024-01-16T02:20:36.988Z,24.63
2024-01-16T02:23:05.738Z,20.80
2024-01-16T02:25:33.277Z,18.20
2024-01-16T02:28:01.928Z,21.52
2024-01-16T02:30:29.064Z,15.55
2024-01-16T02:35:23.637Z,17.63
2024-01-16T02:37:50.939Z,20.23
2024-01-16T02:42:46.237Z,15.07
2024-01-16T02:45:13.784Z,21.90
2024-01-16T02:47:41.896Z,20.02
2024-01-16T02:50:11.141Z,14.43
2024-01-16T02:52:38.537Z,24.40
2024-01-16T02:55:06.246Z,20.02
2024-01-16T02:57:33.544Z,15.63
2024-01-16T03:00:00.686Z,16.42
2024-01-16T03:04:55.058Z,22.95
2024-01-16T03:09:49.213Z,23.20
2024-01-16T03:12:16.501Z,18.25
2024-01-16T03:14:43.877Z,18.13
2024-01-16T03:17:11.107Z,20.23
2024-01-16T03:19:38.483Z,17.15
2024-01-16T03:22:05.727Z,20.63
2024-01-16T03:24:32.877Z,17.60
2024-01-16T03:29:27.671Z,21.23
2024-01-16T03:31:55.014Z,24.35
2024-01-16T03:34:22.494Z,21.33
2024-01-16T03:36:49.690Z,22.42
2024-01-16T03:41:43.782Z,19.05
2024-01-16T03:44:11.092Z,24.08
2024-01-16T03:46:38.728Z,21.20
2024-01-16T03:49:05.968Z,20.77
2024-01-16T03:51:33.667Z,22.30
2024-01-16T03:54:00.823Z,21.85
2024-01-16T03:56:28.137Z,21.98
2024-01-16T03:58:55.549Z,17.83
2024-01-16T04:01:38.395Z,27.95
2024-01-16T04:04:08.643Z,24.85
2024-01-16T04:06:36.183Z,23.10
2024-01-16T04:09:04.377Z,24.90
2024-01-16T04:11:31.727Z,20.98
2024-01-16T04:13:58.959Z,24.98
2024-01-16T04:16:29.825Z,25.40
2024-01-16T04:19:00.767Z,24.27
2024-01-16T04:21:28.841Z,24.50
2024-01-16T04:23:58.755Z,29.63
2024-01-16T04:26:28.367Z,22.38
2024-01-16T04:28:55.813Z,26.85
2024-01-16T04:31:23.749Z,23.92
2024-01-16T04:33:51.556Z,25.38
2024-01-16T04:36:18.977Z,27.92
2024-01-16T04:38:46.254Z,27.10
2024-01-16T04:41:13.585Z,23.40
2024-01-16T04:43:40.987Z,21.00
2024-01-16T04:46:08.271Z,17.60
2024-01-16T04:48:35.514Z,27.10
2024-01-16T04:51:16.099Z,17.80
2024-01-16T04:53:43.562Z,25.27
2024-01-16T04:56:11.145Z,28.10
2024-01-16T04:58:40.968Z,25.75
2024-01-16T05:01:08.224Z,25.08
2024-01-16T05:03:35.868Z,31.38
2024-01-16T05:06:04.627Z,24.17
2024-01-16T05:08:37.344Z,28.23
2024-01-16T05:11:04.580Z,29.52
2024-01-16T05:13:31.885Z,28.92
2024-01-16T05:15:59.318Z,30.73
2024-01-16T05:18:26.962Z,29.70
2024-01-16T05:20:56.125Z,27.08
2024-01-16T05:23:24.187Z,29.52
2024-01-16T05:25:51.784Z,30.00
2024-01-16T05:28:19.216Z,32.58
2024-01-16T05:30:46.420Z,24.70
2024-01-16T05:33:14.604Z,30.20
2024-01-16T05:35:42.111Z,29.02
2024-01-16T05:38:09.605Z,30.30
2024-01-16T05:40:38.365Z,28.00
2024-01-16T05:43:05.853Z,29.13
2024-01-16T05:45:33.603Z,27.75
2024-01-16T05:48:01.533Z,26.42
2024-01-16T05:50:29.070Z,27.23
2024-01-16T05:52:56.434Z,28.63
2024-01-16T05:57:50.775Z,26.60
2024-01-16T06:00:19.545Z,25.67
2024-01-16T06:02:47.055Z,25.75
2024-01-16T06:05:15.469Z,26.77
2024-01-16T06:07:42.805Z,30.02
2024-01-16T06:10:10.728Z,26.58
2024-01-16T06:12:38.387Z,24.30
2024-01-16T06:15:06.056Z,23.38
2024-01-16T06:17:33.579Z,27.65
2024-01-16T06:20:00.992Z,26.77
2024-01-16T06:22:33.152Z,34.97
2024-01-16T06:25:00.542Z,30.58
2024-01-16T06:29:54.781Z,25.90
2024-01-16T06:32:22.164Z,26.95
2024-01-16T06:34:49.603Z,28.75
2024-01-16T06:37:17.102Z,28.13
2024-01-16T06:39:44.317Z,23.88
2024-01-16T06:42:11.859Z,30.45
2024-01-16T06:44:39.404Z,30.52
2024-01-16T06:47:07.012Z,30.98
2024-01-16T06:49:34.320Z,30.60
2024-01-16T06:52:01.669Z,32.47
2024-01-16T06:54:29.270Z,30.77
2024-01-16T06:56:56.626Z,35.95
2024-01-16T06:59:24.123Z,27.83
2024-01-16T07:01:51.312Z,35.90
2024-01-16T07:06:45.724Z,31.85
2024-01-16T07:11:44.232Z,32.10
2024-01-16T07:14:12.052Z,26.77
2024-01-16T07:16:39.589Z,35.38
2024-01-16T07:19:07.068Z,36.83
2024-01-16T07:21:35.043Z,35.42
2024-01-16T07:24:02.520Z,23.10
2024-01-16T07:26:31.004Z,36.17
2024-01-16T07:28:58.514Z,32.88
2024-01-16T07:31:26.767Z,33.85
2024-01-16T07:33:54.280Z,31.40
2024-01-16T07:36:21.683Z,29.38
2024-01-16T07:38:49.326Z,33.25
2024-01-16T07:41:16.910Z,33.45
2024-01-16T07:43:46.686Z,31.30
2024-01-16T07:46:15.728Z,34.33
2024-01-16T07:48:43.581Z,34.22
2024-01-16T07:51:14.182Z,33.78
2024-01-16T07:53:41.603Z,29.52
2024-01-16T07:56:08.909Z,26.17
2024-01-16T07:58:36.264Z,18.08
2024-01-16T08:01:04.099Z,25.88
2024-01-16T08:03:31.816Z,14.48
2024-01-16T08:06:00.683Z,17.70
2024-01-16T08:08:28.356Z,23.65
2024-01-16T08:10:57.688Z,23.48
2024-01-16T08:13:25.158Z,21.13
2024-01-16T08:15:52.542Z,21.48
2024-01-16T08:18:20.063Z,25.05
2024-01-16T08:20:47.513Z,23.92
2024-01-16T08:23:14.813Z,32.75
2024-01-16T08:25:42.265Z,24.75
2024-01-16T08:28:10.095Z,28.77
2024-01-16T08:30:54.469Z,24.48
2024-01-16T08:33:37.224Z,26.00
2024-01-16T08:39:19.709Z,26.25
2024-01-16T10:40:06.073Z,30.65
2024-01-16T10:42:34.084Z,24.63
2024-01-16T10:45:01.473Z,29.88
2024-01-16T10:47:32.224Z,28.80
2024-01-16T10:49:59.671Z,23.77
2024-01-16T10:52:30.717Z,27.88
2024-01-16T10:55:04.323Z,29.85
2024-01-16T10:57:34.038Z,26.98
2024-01-16T11:00:07.819Z,29.98
2024-01-16T11:02:50.747Z,25.85
2024-01-16T11:05:23.839Z,33.72
2024-01-16T11:08:01.732Z,25.33
2024-01-16T11:10:34.767Z,32.30
2024-01-16T11:13:06.903Z,29.05
2024-01-16T11:15:44.979Z,30.65
2024-01-16T11:18:20.548Z,26.10
2024-01-16T11:21:02.425Z,31.73
2024-01-16T11:23:34.433Z,27.35
2024-01-16T11:26:25.006Z,33.03
2024-01-16T11:28:52.512Z,32.38
2024-01-16T11:31:31.049Z,32.75
2024-01-16T11:33:58.953Z,23.38
2024-01-16T11:36:57.944Z,29.88
2024-01-16T11:39:29.594Z,26.17
2024-01-16T11:42:04.229Z,22.67
2024-01-16T11:44:57.072Z,32.88
2024-01-16T11:47:25.795Z,37.05
2024-01-16T11:50:14.900Z,34.03
2024-01-16T11:52:46.685Z,21.20
2024-01-16T11:55:38.002Z,26.83
2024-01-16T11:58:23.924Z,26.05
2024-01-16T12:00:55.169Z,31.60
2024-01-16T12:03:48.483Z,33.50
2024-01-16T12:06:21.058Z,43.28
2024-01-16T12:08:51.487Z,35.33
2024-01-16T12:11:30.249Z,37.58
2024-01-16T12:14:10.791Z,30.50
2024-01-16T12:19:22.288Z,27.17
2024-01-16T12:21:52.289Z,26.00
2024-01-16T12:24:19.945Z,38.58
2024-01-16T12:26:48.851Z,30.48
2024-01-16T12:29:19.831Z,29.73
2024-01-16T12:31:48.670Z,30.58
2024-01-16T12:34:27.132Z,21.35
2024-01-16T12:37:07.868Z,30.13
2024-01-16T12:39:39.212Z,30.30
2024-01-16T12:42:07.259Z,22.70
2024-01-16T12:44:50.268Z,34.22
2024-01-16T12:47:20.660Z,23.00
2024-01-16T12:49:48.611Z,24.55
2024-01-16T12:52:19.348Z,28.27
2024-01-16T12:54:56.811Z,28.73
2024-01-16T12:57:24.713Z,27.67
2024-01-16T12:59:54.412Z,27.80
2024-01-16T13:02:24.428Z,30.45
2024-01-16T13:05:05.520Z,26.15
2024-01-16T13:07:35.947Z,28.90
2024-01-16T13:10:14.133Z,31.60
2024-01-16T13:12:49.013Z,29.83
2024-01-16T13:15:20.564Z,26.70
2024-01-16T13:17:49.526Z,30.40
2024-01-16T13:20:17.795Z,32.80
2024-01-16T13:22:47.832Z,36.80
2024-01-16T13:25:16.663Z,35.42
2024-01-16T13:27:47.257Z,34.58
2024-01-16T13:30:17.444Z,33.60
2024-01-16T13:32:45.163Z,31.17
2024-01-16T13:35:15.993Z,36.95
2024-01-16T13:37:48.437Z,37.33
2024-01-16T13:40:17.166Z,34.47
2024-01-16T13:42:45.221Z,31.20
2024-01-16T13:45:18.359Z,34.33
2024-01-16T13:47:48.193Z,28.92
2024-01-16T13:53:07.861Z,28.85
2024-01-16T13:55:35.139Z,28.27
2024-01-16T13:58:05.608Z,34.22
2024-01-16T14:00:33.059Z,34.55
2024-01-16T14:03:02.184Z,30.27
2024-01-16T14:08:03.612Z,33.58
2024-01-16T14:10:31.095Z,28.75
2024-01-16T14:13:03.050Z,40.03
2024-01-16T14:15:31.658Z,31.42
2024-01-16T14:17:59.843Z,28.35
2024-01-16T14:20:30.607Z,30.33
2024-01-16T14:23:01.117Z,31.42
2024-01-16T14:25:41.582Z,33.75
2024-01-16T14:28:15.353Z,34.72
2024-01-16T14:30:51.524Z,30.60
2024-01-16T14:33:19.384Z,31.40
2024-01-16T14:35:47.076Z,41.63
2024-01-16T14:38:14.603Z,39.08
2024-01-16T14:43:27.244Z,35.65
2024-01-16T14:45:59.707Z,28.08
2024-01-16T14:48:28.140Z,32.67
2024-01-16T14:51:03.831Z,35.50
2024-01-16T14:53:32.884Z,34.83
2024-01-16T14:56:07.214Z,33.80
2024-01-16T14:58:34.821Z,38.63
2024-01-16T15:01:02.846Z,37.58
2024-01-16T15:03:30.808Z,39.75
2024-01-16T15:05:59.591Z,40.25
2024-01-16T15:08:28.128Z,44.15
2024-01-16T15:11:00.919Z,34.17
2024-01-16T15:13:37.874Z,32.92
2024-01-16T15:16:05.771Z,32.80
2024-01-16T15:18:34.040Z,33.58
2024-01-16T15:21:05.438Z,39.08
2024-01-16T15:23:37.771Z,36.40
2024-01-16T15:26:08.746Z,38.75
2024-01-16T15:28:46.255Z,34.58
2024-01-16T15:31:22.951Z,37.03
2024-01-16T15:33:50.808Z,33.53
2024-01-16T15:36:20.194Z,36.83
2024-01-16T15:38:51.630Z,36.47
2024-01-16T15:41:22.173Z,34.53
2024-01-16T15:46:31.500Z,38.95
2024-01-16T15:48:59.664Z,34.33
2024-01-16T15:51:27.235Z,40.30
2024-01-16T15:53:54.651Z,33.45
2024-01-16T15:56:22.511Z,35.72
2024-01-16T15:58:57.867Z,40.83
2024-01-16T16:01:26.839Z,39.22
2024-01-16T16:03:56.618Z,35.65
2024-01-16T16:06:29.258Z,37.40
2024-01-16T16:09:01.158Z,51.88
2024-01-16T16:11:50.811Z,39.60
2024-01-16T16:14:21.309Z,32.13
2024-01-16T16:16:55.522Z,50.17
2024-01-16T16:19:29.662Z,40.28
2024-01-16T16:22:01.853Z,37.15
2024-01-16T16:24:39.163Z,42.88
2024-01-16T16:27:33.201Z,26.17
2024-01-16T16:30:14.130Z,42.88
2024-01-16T16:35:33.720Z,43.95
2024-01-16T16:38:03.854Z,44.03
2024-01-16T16:40:34.170Z,47.13
2024-01-16T16:43:08.042Z,40.58
2024-01-16T16:45:42.304Z,41.40
2024-01-16T16:48:25.065Z,43.60
2024-01-16T16:50:53.465Z,39.35
2024-01-16T16:53:28.294Z,28.88
2024-01-16T16:56:00.985Z,39.80
2024-01-16T16:58:37.689Z,37.08
2024-01-16T17:01:08.081Z,40.05
2024-01-16T17:03:44.519Z,35.83
2024-01-16T17:06:13.874Z,34.88
2024-01-16T17:08:54.261Z,37.17
2024-01-16T17:11:29.075Z,43.42
2024-01-16T17:14:17.866Z,44.13
2024-01-16T17:16:49.700Z,41.03
2024-01-16T17:19:34.047Z,37.78
2024-01-16T17:24:52.441Z,37.53
2024-01-16T17:27:27.743Z,39.22
2024-01-16T17:30:04.516Z,33.90
2024-01-16T17:32:41.249Z,32.97
2024-01-16T17:41:06.962Z,32.50
2024-01-16T17:43:38.118Z,34.03
2024-01-16T17:46:10.365Z,28.88
2024-01-16T17:48:47.561Z,27.40
2024-01-16T17:51:22.730Z,31.98
2024-01-16T17:53:54.705Z,35.40
2024-01-16T17:56:39.135Z,25.98
2024-01-16T18:02:32.554Z,30.98
2024-01-16T18:05:36.049Z,28.30
2024-01-16T18:08:51.524Z,29.00
2024-01-16T18:11:34.626Z,35.15
2024-01-16T18:14:11.209Z,32.28
2024-01-16T18:16:51.680Z,36.75
2024-01-16T18:19:49.697Z,26.52
2024-01-16T18:22:30.144Z,36.70
2024-01-16T18:24:58.482Z,26.17
2024-01-16T18:28:06.085Z,24.80
2024-01-16T18:30:36.815Z,35.03
2024-01-16T18:37:06.449Z,28.23
2024-01-16T18:45:12.746Z,36.47
2024-01-16T18:47:54.522Z,43.97
2024-01-16T18:50:23.377Z,49.10
2024-01-16T18:53:07.188Z,44.03
2024-01-16T18:55:39.551Z,51.72
2024-01-16T18:58:54.782Z,49.78
2024-01-16T19:04:33.767Z,35.63
2024-01-16T19:07:19.898Z,48.00
2024-01-16T19:13:02.161Z,47.92
2024-01-16T19:19:01.091Z,38.47
2024-01-16T19:21:31.739Z,41.17
2024-01-16T19:24:19.566Z,34.78
2024-01-16T19:26:51.057Z,28.25
2024-01-16T19:29:23.132Z,30.58
2024-01-16T19:37:35.634Z,27.05
2024-01-16T19:40:22.729Z,33.03
2024-01-16T19:42:58.863Z,35.60
2024-01-16T19:45:40.484Z,37.38
2024-01-16T19:48:15.611Z,41.17
2024-01-16T19:50:53.148Z,35.33
2024-01-16T19:53:31.980Z,35.15
2024-01-16T19:56:03.254Z,45.80
2024-01-16T19:58:31.929Z,31.77
2024-01-16T20:01:05.273Z,28.13
2024-01-16T20:03:37.510Z,33.17
2024-01-16T20:06:22.827Z,32.88
2024-01-16T20:08:53.319Z,35.28
2024-01-16T20:11:31.389Z,37.80
2024-01-16T20:14:12.933Z,29.00
2024-01-16T20:16:51.308Z,27.20
2024-01-16T20:19:31.746Z,45.53
2024-01-16T20:22:14.066Z,39.33
2024-01-16T20:27:27.757Z,40.38
2024-01-16T20:29:56.485Z,23.98
2024-01-16T20:32:26.269Z,27.38
2024-01-16T20:34:57.086Z,37.58
2024-01-16T20:37:28.661Z,33.92
2024-01-16T20:40:02.966Z,30.20
2024-01-16T20:42:38.089Z,31.95
2024-01-16T20:48:45.374Z,28.88
2024-01-16T20:51:20.024Z,31.35
2024-01-16T20:56:36.758Z,28.00
2024-01-16T20:59:38.001Z,29.85
2024-01-16T21:02:07.809Z,18.83
2024-01-16T21:04:47.075Z,17.85
2024-01-16T21:07:24.077Z,23.17
2024-01-16T21:09:51.534Z,24.08
2024-01-16T21:26:22.821Z,19.42
2024-01-16T21:28:54.481Z,23.55
2024-01-16T21:32:13.261Z,21.70
2024-01-16T21:34:50.294Z,20.35
2024-01-16T21:37:24.812Z,21.17
2024-01-16T21:39:54.398Z,22.02
2024-01-16T21:42:33.574Z,20.35
2024-01-16T21:48:09.288Z,20.23
2024-01-16T21:50:54.242Z,18.83
2024-01-16T22:51:00.299Z,11.23
2024-01-16T22:53:42.153Z,11.05
2024-01-16T23:03:32.426Z,10.70
2024-01-16T23:06:04.212Z,12.95
2024-01-16T23:14:06.862Z,9.48
2024-01-16T23:22:24.004Z,15.43
2024-01-16T23:24:51.738Z,11.90
2024-01-16T23:37:35.419Z,12.38
2024-01-16T23:40:02.916Z,13.40
2024-01-16T23:42:35.669Z,13.15
2024-01-16T23:45:07.983Z,12.27
2024-01-16T23:47:54.854Z,12.85
2024-01-16T23:50:26.887Z,11.20
2024-01-16T23:52:54.667Z,8.48
2024-01-16T23:58:10.372Z,11.90
